sensor_id;sensor_type;location;lat;lon;timestamp;P1;durP1;ratioP1;P2;durP2;ratioP2
57111;SDS011;42992;49.084;19.300;2022-09-30T00:00:55;15.20;;;11.23;;
57111;SDS011;42992;49.084;19.300;2022-09-30T00:03:20;16.73;;;11.80;;
57111;SDS011;42992;49.084;19.300;2022-09-30T00:05:46;16.80;;;12.07;;
57111;SDS011;42992;49.084;19.300;2022-09-30T00:08:12;20.45;;;11.55;;
57111;SDS011;42992;49.084;19.300;2022-09-30T00:10:37;19.48;;;12.02;;
57111;SDS011;42992;49.084;19.300;2022-09-30T00:13:02;16.63;;;12.45;;
57111;SDS011;42992;49.084;19.300;2022-09-30T00:15:27;16.70;;;11.02;;
57111;SDS011;42992;49.084;19.300;2022-09-30T00:17:53;19.52;;;12.43;;
57111;SDS011;42992;49.084;19.300;2022-09-30T00:20:18;15.23;;;11.35;;
57111;SDS011;42992;49.084;19.300;2022-09-30T00:22:43;17.75;;;12.55;;
57111;SDS011;42992;49.084;19.300;2022-09-30T00:25:09;17.00;;;11.90;;
57111;SDS011;42992;49.084;19.300;2022-09-30T00:27:34;19.00;;;12.63;;
57111;SDS011;42992;49.084;19.300;2022-09-30T00:29:59;21.67;;;12.25;;
57111;SDS011;42992;49.084;19.300;2022-09-30T00:32:25;17.85;;;11.82;;
57111;SDS011;42992;49.084;19.300;2022-09-30T00:34:50;16.70;;;11.85;;
57111;SDS011;42992;49.084;19.300;2022-09-30T00:37:15;18.30;;;11.90;;
57111;SDS011;42992;49.084;19.300;2022-09-30T00:39:41;19.98;;;11.80;;
57111;SDS011;42992;49.084;19.300;2022-09-30T00:42:08;18.52;;;11.80;;
57111;SDS011;42992;49.084;19.300;2022-09-30T00:47:03;18.25;;;12.50;;
57111;SDS011;42992;49.084;19.300;2022-09-30T00:49:30;17.73;;;11.57;;
57111;SDS011;42992;49.084;19.300;2022-09-30T00:51:55;16.15;;;11.70;;
57111;SDS011;42992;49.084;19.300;2022-09-30T00:54:23;17.15;;;12.50;;
57111;SDS011;42992;49.084;19.300;2022-09-30T00:56:51;17.40;;;11.68;;
57111;SDS011;42992;49.084;19.300;2022-09-30T00:59:19;17.63;;;12.23;;
57111;SDS011;42992;49.084;19.300;2022-09-30T01:01:46;19.05;;;12.10;;
57111;SDS011;42992;49.084;19.300;2022-09-30T01:04:12;18.40;;;12.00;;
57111;SDS011;42992;49.084;19.300;2022-09-30T01:06:38;19.77;;;11.75;;
57111;SDS011;42992;49.084;19.300;2022-09-30T01:09:04;19.75;;;11.75;;
57111;SDS011;42992;49.084;19.300;2022-09-30T01:11:29;16.85;;;12.30;;
57111;SDS011;42992;49.084;19.300;2022-09-30T01:13:56;27.38;;;12.30;;
57111;SDS011;42992;49.084;19.300;2022-09-30T01:19:04;16.53;;;12.07;;
57111;SDS011;42992;49.084;19.300;2022-09-30T01:26:39;15.48;;;11.88;;
57111;SDS011;42992;49.084;19.300;2022-09-30T01:29:25;16.52;;;11.57;;
57111;SDS011;42992;49.084;19.300;2022-09-30T01:31:59;17.90;;;12.32;;
57111;SDS011;42992;49.084;19.300;2022-09-30T01:37:00;16.98;;;11.88;;
57111;SDS011;42992;49.084;19.300;2022-09-30T01:41:54;16.30;;;11.00;;
57111;SDS011;42992;49.084;19.300;2022-09-30T01:47:26;15.82;;;11.43;;
57111;SDS011;42992;49.084;19.300;2022-09-30T01:52:40;15.10;;;10.68;;
57111;SDS011;42992;49.084;19.300;2022-09-30T01:55:20;14.60;;;11.15;;
57111;SDS011;42992;49.084;19.300;2022-09-30T02:00:12;14.65;;;10.60;;
57111;SDS011;42992;49.084;19.300;2022-09-30T02:02:44;14.50;;;10.95;;
57111;SDS011;42992;49.084;19.300;2022-09-30T02:05:16;16.27;;;11.63;;
57111;SDS011;42992;49.084;19.300;2022-09-30T02:07:44;15.05;;;11.40;;
57111;SDS011;42992;49.084;19.300;2022-09-30T02:10:12;15.95;;;12.00;;
57111;SDS011;42992;49.084;19.300;2022-09-30T02:12:41;17.73;;;12.27;;
57111;SDS011;42992;49.084;19.300;2022-09-30T02:15:21;17.88;;;12.35;;
57111;SDS011;42992;49.084;19.300;2022-09-30T02:17:55;17.30;;;12.48;;
57111;SDS011;42992;49.084;19.300;2022-09-30T02:20:26;17.90;;;12.75;;
57111;SDS011;42992;49.084;19.300;2022-09-30T02:22:55;22.75;;;12.85;;
57111;SDS011;42992;49.084;19.300;2022-09-30T02:25:23;18.52;;;12.77;;
57111;SDS011;42992;49.084;19.300;2022-09-30T02:27:55;17.23;;;12.55;;
57111;SDS011;42992;49.084;19.300;2022-09-30T02:30:22;19.52;;;13.32;;
57111;SDS011;42992;49.084;19.300;2022-09-30T02:32:48;16.77;;;11.65;;
57111;SDS011;42992;49.084;19.300;2022-09-30T02:38:11;17.05;;;12.27;;
57111;SDS011;42992;49.084;19.300;2022-09-30T02:40:42;19.40;;;12.27;;
57111;SDS011;42992;49.084;19.300;2022-09-30T02:43:11;16.52;;;11.98;;
57111;SDS011;42992;49.084;19.300;2022-09-30T02:48:36;18.88;;;12.20;;
57111;SDS011;42992;49.084;19.300;2022-09-30T02:51:13;17.15;;;11.68;;
57111;SDS011;42992;49.084;19.300;2022-09-30T02:53:44;16.70;;;12.50;;
57111;SDS011;42992;49.084;19.300;2022-09-30T02:58:40;17.08;;;11.90;;
57111;SDS011;42992;49.084;19.300;2022-09-30T03:01:11;16.13;;;11.27;;
57111;SDS011;42992;49.084;19.300;2022-09-30T03:03:41;18.88;;;12.40;;
57111;SDS011;42992;49.084;19.300;2022-09-30T03:06:07;19.90;;;12.07;;
57111;SDS011;42992;49.084;19.300;2022-09-30T03:08:33;16.80;;;12.05;;
57111;SDS011;42992;49.084;19.300;2022-09-30T03:10:59;21.52;;;13.32;;
57111;SDS011;42992;49.084;19.300;2022-09-30T03:13:29;22.35;;;15.38;;
57111;SDS011;42992;49.084;19.300;2022-09-30T03:16:25;23.30;;;14.93;;
57111;SDS011;42992;49.084;19.300;2022-09-30T03:26:17;19.67;;;13.55;;
57111;SDS011;42992;49.084;19.300;2022-09-30T03:31:13;21.67;;;14.40;;
57111;SDS011;42992;49.084;19.300;2022-09-30T03:33:51;20.58;;;13.93;;
57111;SDS011;42992;49.084;19.300;2022-09-30T03:36:26;22.77;;;15.32;;
57111;SDS011;42992;49.084;19.300;2022-09-30T03:41:34;23.30;;;14.73;;
57111;SDS011;42992;49.084;19.300;2022-09-30T03:44:22;22.05;;;14.80;;
57111;SDS011;42992;49.084;19.300;2022-09-30T03:46:50;20.70;;;13.82;;
57111;SDS011;42992;49.084;19.300;2022-09-30T03:49:23;21.02;;;14.18;;
57111;SDS011;42992;49.084;19.300;2022-09-30T03:51:50;20.50;;;15.55;;
57111;SDS011;42992;49.084;19.300;2022-09-30T03:54:15;19.23;;;13.43;;
57111;SDS011;42992;49.084;19.300;2022-09-30T03:56:41;20.35;;;13.48;;
57111;SDS011;42992;49.084;19.300;2022-09-30T03:59:28;21.05;;;14.82;;
57111;SDS011;42992;49.084;19.300;2022-09-30T04:01:53;20.05;;;12.80;;
57111;SDS011;42992;49.084;19.300;2022-09-30T04:04:18;20.33;;;12.93;;
57111;SDS011;42992;49.084;19.300;2022-09-30T04:06:44;20.75;;;13.98;;
57111;SDS011;42992;49.084;19.300;2022-09-30T04:09:09;18.80;;;13.10;;
57111;SDS011;42992;49.084;19.300;2022-09-30T04:11:35;20.77;;;13.57;;
57111;SDS011;42992;49.084;19.300;2022-09-30T04:14:00;17.20;;;12.55;;
57111;SDS011;42992;49.084;19.300;2022-09-30T04:16:27;19.88;;;12.63;;
57111;SDS011;42992;49.084;19.300;2022-09-30T04:18:52;18.92;;;12.82;;
57111;SDS011;42992;49.084;19.300;2022-09-30T04:21:18;17.48;;;12.80;;
57111;SDS011;42992;49.084;19.300;2022-09-30T04:23:43;19.88;;;13.32;;
57111;SDS011;42992;49.084;19.300;2022-09-30T04:26:12;18.83;;;13.00;;
57111;SDS011;42992;49.084;19.300;2022-09-30T04:28:37;19.08;;;13.80;;
57111;SDS011;42992;49.084;19.300;2022-09-30T04:31:03;22.17;;;14.73;;
57111;SDS011;42992;49.084;19.300;2022-09-30T04:33:29;18.45;;;12.93;;
57111;SDS011;42992;49.084;19.300;2022-09-30T04:35:54;18.15;;;12.95;;
57111;SDS011;42992;49.084;19.300;2022-09-30T04:38:20;19.00;;;12.80;;
57111;SDS011;42992;49.084;19.300;2022-09-30T04:40:45;18.33;;;12.98;;
57111;SDS011;42992;49.084;19.300;2022-09-30T04:43:13;18.27;;;13.68;;
57111;SDS011;42992;49.084;19.300;2022-09-30T04:45:41;24.65;;;16.20;;
57111;SDS011;42992;49.084;19.300;2022-09-30T04:48:06;22.38;;;14.95;;
57111;SDS011;42992;49.084;19.300;2022-09-30T04:50:31;22.05;;;14.82;;
57111;SDS011;42992;49.084;19.300;2022-09-30T04:52:58;21.98;;;14.52;;
57111;SDS011;42992;49.084;19.300;2022-09-30T04:55:23;22.65;;;14.40;;
57111;SDS011;42992;49.084;19.300;2022-09-30T04:57:49;20.15;;;13.27;;
57111;SDS011;42992;49.084;19.300;2022-09-30T05:00:14;20.15;;;13.93;;
57111;SDS011;42992;49.084;19.300;2022-09-30T05:02:41;18.67;;;13.40;;
57111;SDS011;42992;49.084;19.300;2022-09-30T05:05:07;20.63;;;13.35;;
57111;SDS011;42992;49.084;19.300;2022-09-30T05:07:32;19.45;;;13.40;;
57111;SDS011;42992;49.084;19.300;2022-09-30T05:09:57;18.08;;;12.05;;
57111;SDS011;42992;49.084;19.300;2022-09-30T05:12:23;18.17;;;13.02;;
57111;SDS011;42992;49.084;19.300;2022-09-30T05:14:50;20.00;;;13.13;;
57111;SDS011;42992;49.084;19.300;2022-09-30T05:17:15;23.00;;;13.88;;
57111;SDS011;42992;49.084;19.300;2022-09-30T05:19:40;17.60;;;13.02;;
57111;SDS011;42992;49.084;19.300;2022-09-30T05:22:05;18.10;;;12.63;;
57111;SDS011;42992;49.084;19.300;2022-09-30T05:24:31;17.75;;;12.75;;
57111;SDS011;42992;49.084;19.300;2022-09-30T05:26:56;19.33;;;12.13;;
57111;SDS011;42992;49.084;19.300;2022-09-30T05:29:21;18.55;;;13.10;;
57111;SDS011;42992;49.084;19.300;2022-09-30T05:31:46;22.38;;;14.13;;
57111;SDS011;42992;49.084;19.300;2022-09-30T05:34:12;16.20;;;11.35;;
57111;SDS011;42992;49.084;19.300;2022-09-30T05:36:40;16.25;;;11.95;;
57111;SDS011;42992;49.084;19.300;2022-09-30T05:39:05;16.92;;;11.63;;
57111;SDS011;42992;49.084;19.300;2022-09-30T05:41:31;17.80;;;12.45;;
57111;SDS011;42992;49.084;19.300;2022-09-30T05:43:56;18.33;;;11.98;;
57111;SDS011;42992;49.084;19.300;2022-09-30T05:46:23;16.08;;;12.23;;
57111;SDS011;42992;49.084;19.300;2022-09-30T05:48:51;16.52;;;12.45;;
57111;SDS011;42992;49.084;19.300;2022-09-30T05:51:16;16.35;;;11.90;;
57111;SDS011;42992;49.084;19.300;2022-09-30T05:53:41;18.52;;;13.20;;
57111;SDS011;42992;49.084;19.300;2022-09-30T05:56:07;17.13;;;13.05;;
57111;SDS011;42992;49.084;19.300;2022-09-30T05:58:33;19.67;;;12.77;;
57111;SDS011;42992;49.084;19.300;2022-09-30T06:01:02;15.95;;;11.77;;
57111;SDS011;42992;49.084;19.300;2022-09-30T06:03:30;19.50;;;13.88;;
57111;SDS011;42992;49.084;19.300;2022-09-30T06:05:55;19.83;;;14.38;;
57111;SDS011;42992;49.084;19.300;2022-09-30T06:08:22;17.35;;;13.02;;
57111;SDS011;42992;49.084;19.300;2022-09-30T06:10:48;14.05;;;10.82;;
57111;SDS011;42992;49.084;19.300;2022-09-30T06:13:13;15.88;;;10.77;;
57111;SDS011;42992;49.084;19.300;2022-09-30T06:15:38;14.32;;;10.35;;
57111;SDS011;42992;49.084;19.300;2022-09-30T06:18:05;14.65;;;10.77;;
57111;SDS011;42992;49.084;19.300;2022-09-30T06:20:31;12.88;;;9.82;;
57111;SDS011;42992;49.084;19.300;2022-09-30T06:22:59;16.50;;;11.30;;
57111;SDS011;42992;49.084;19.300;2022-09-30T06:25:25;15.82;;;11.07;;
57111;SDS011;42992;49.084;19.300;2022-09-30T06:27:52;14.15;;;11.05;;
57111;SDS011;42992;49.084;19.300;2022-09-30T06:30:18;16.33;;;11.07;;
57111;SDS011;42992;49.084;19.300;2022-09-30T06:32:43;15.65;;;11.45;;
57111;SDS011;42992;49.084;19.300;2022-09-30T06:35:09;15.25;;;10.60;;
57111;SDS011;42992;49.084;19.300;2022-09-30T06:37:34;12.68;;;9.82;;
57111;SDS011;42992;49.084;19.300;2022-09-30T06:40:02;15.27;;;10.70;;
57111;SDS011;42992;49.084;19.300;2022-09-30T06:42:27;14.45;;;10.38;;
57111;SDS011;42992;49.084;19.300;2022-09-30T06:44:52;17.00;;;10.57;;
57111;SDS011;42992;49.084;19.300;2022-09-30T06:47:18;15.68;;;9.93;;
57111;SDS011;42992;49.084;19.300;2022-09-30T06:49:43;15.73;;;10.60;;
57111;SDS011;42992;49.084;19.300;2022-09-30T06:52:09;15.20;;;10.20;;
57111;SDS011;42992;49.084;19.300;2022-09-30T06:54:38;12.55;;;9.57;;
57111;SDS011;42992;49.084;19.300;2022-09-30T06:57:03;12.88;;;8.88;;
57111;SDS011;42992;49.084;19.300;2022-09-30T06:59:29;12.15;;;8.65;;
57111;SDS011;42992;49.084;19.300;2022-09-30T07:01:54;12.70;;;9.77;;
57111;SDS011;42992;49.084;19.300;2022-09-30T07:04:19;15.23;;;10.70;;
57111;SDS011;42992;49.084;19.300;2022-09-30T07:06:45;13.48;;;9.25;;
57111;SDS011;42992;49.084;19.300;2022-09-30T07:09:10;12.65;;;9.38;;
57111;SDS011;42992;49.084;19.300;2022-09-30T07:11:36;12.75;;;9.80;;
57111;SDS011;42992;49.084;19.300;2022-09-30T07:14:02;14.95;;;10.20;;
57111;SDS011;42992;49.084;19.300;2022-09-30T07:16:28;12.27;;;9.52;;
57111;SDS011;42992;49.084;19.300;2022-09-30T07:18:55;13.77;;;10.07;;
57111;SDS011;42992;49.084;19.300;2022-09-30T07:21:21;12.68;;;9.38;;
57111;SDS011;42992;49.084;19.300;2022-09-30T07:23:46;15.35;;;9.65;;
57111;SDS011;42992;49.084;19.300;2022-09-30T07:26:13;12.88;;;9.15;;
57111;SDS011;42992;49.084;19.300;2022-09-30T07:28:38;19.25;;;10.73;;
57111;SDS011;42992;49.084;19.300;2022-09-30T07:31:24;19.00;;;10.52;;
57111;SDS011;42992;49.084;19.300;2022-09-30T07:33:53;13.80;;;10.50;;
57111;SDS011;42992;49.084;19.300;2022-09-30T07:36:22;13.20;;;10.35;;
57111;SDS011;42992;49.084;19.300;2022-09-30T07:38:51;12.68;;;9.07;;
57111;SDS011;42992;49.084;19.300;2022-09-30T07:41:20;13.13;;;9.75;;
57111;SDS011;42992;49.084;19.300;2022-09-30T07:43:48;12.63;;;9.82;;
57111;SDS011;42992;49.084;19.300;2022-09-30T07:46:18;14.60;;;10.20;;
57111;SDS011;42992;49.084;19.300;2022-09-30T07:48:44;12.23;;;9.10;;
57111;SDS011;42992;49.084;19.300;2022-09-30T07:51:17;14.43;;;10.00;;
57111;SDS011;42992;49.084;19.300;2022-09-30T07:53:44;14.65;;;9.57;;
57111;SDS011;42992;49.084;19.300;2022-09-30T07:56:10;14.07;;;9.65;;
57111;SDS011;42992;49.084;19.300;2022-09-30T07:58:35;12.25;;;8.85;;
57111;SDS011;42992;49.084;19.300;2022-09-30T08:01:01;12.82;;;8.95;;
57111;SDS011;42992;49.084;19.300;2022-09-30T08:03:27;12.63;;;8.88;;
57111;SDS011;42992;49.084;19.300;2022-09-30T08:05:52;13.48;;;9.50;;
57111;SDS011;42992;49.084;19.300;2022-09-30T08:08:18;10.57;;;7.82;;
57111;SDS011;42992;49.084;19.300;2022-09-30T08:10:43;11.25;;;8.32;;
57111;SDS011;42992;49.084;19.300;2022-09-30T08:13:09;12.15;;;8.70;;
57111;SDS011;42992;49.084;19.300;2022-09-30T08:15:34;12.43;;;9.63;;
57111;SDS011;42992;49.084;19.300;2022-09-30T08:17:59;14.18;;;11.25;;
57111;SDS011;42992;49.084;19.300;2022-09-30T08:20:24;15.07;;;11.85;;
57111;SDS011;42992;49.084;19.300;2022-09-30T08:22:53;14.50;;;11.38;;
57111;SDS011;42992;49.084;19.300;2022-09-30T08:25:19;14.32;;;10.50;;
57111;SDS011;42992;49.084;19.300;2022-09-30T08:27:44;14.43;;;11.07;;
57111;SDS011;42992;49.084;19.300;2022-09-30T08:30:09;15.95;;;11.45;;
57111;SDS011;42992;49.084;19.300;2022-09-30T08:32:35;14.38;;;11.00;;
57111;SDS011;42992;49.084;19.300;2022-09-30T08:35:00;14.18;;;10.25;;
57111;SDS011;42992;49.084;19.300;2022-09-30T08:37:25;13.05;;;9.93;;
57111;SDS011;42992;49.084;19.300;2022-09-30T08:39:51;15.13;;;11.15;;
57111;SDS011;42992;49.084;19.300;2022-09-30T08:44:45;14.10;;;10.55;;
57111;SDS011;42992;49.084;19.300;2022-09-30T08:52:02;13.40;;;9.07;;
57111;SDS011;42992;49.084;19.300;2022-09-30T08:54:30;13.55;;;10.32;;
57111;SDS011;42992;49.084;19.300;2022-09-30T08:56:57;15.25;;;9.93;;
57111;SDS011;42992;49.084;19.300;2022-09-30T09:01:53;14.63;;;10.55;;
57111;SDS011;42992;49.084;19.300;2022-09-30T09:04:22;15.05;;;10.18;;
57111;SDS011;42992;49.084;19.300;2022-09-30T09:09:36;14.20;;;9.93;;
57111;SDS011;42992;49.084;19.300;2022-09-30T09:12:20;10.02;;;8.30;;
57111;SDS011;42992;49.084;19.300;2022-09-30T09:20:18;11.95;;;8.25;;
57111;SDS011;42992;49.084;19.300;2022-09-30T09:22:46;10.68;;;7.80;;
57111;SDS011;42992;49.084;19.300;2022-09-30T09:25:16;11.98;;;8.68;;
57111;SDS011;42992;49.084;19.300;2022-09-30T09:30:11;10.73;;;7.85;;
57111;SDS011;42992;49.084;19.300;2022-09-30T09:32:37;11.50;;;7.90;;
57111;SDS011;42992;49.084;19.300;2022-09-30T09:35:15;9.85;;;7.50;;
57111;SDS011;42992;49.084;19.300;2022-09-30T09:40:45;8.23;;;5.97;;
57111;SDS011;42992;49.084;19.300;2022-09-30T09:43:30;9.02;;;6.55;;
57111;SDS011;42992;49.084;19.300;2022-09-30T09:46:06;9.02;;;6.78;;
57111;SDS011;42992;49.084;19.300;2022-09-30T09:48:33;10.05;;;6.53;;
57111;SDS011;42992;49.084;19.300;2022-09-30T09:56:22;9.55;;;6.80;;
57111;SDS011;42992;49.084;19.300;2022-09-30T10:01:38;10.30;;;6.30;;
57111;SDS011;42992;49.084;19.300;2022-09-30T10:06:55;10.38;;;7.40;;
57111;SDS011;42992;49.084;19.300;2022-09-30T10:11:47;10.98;;;7.45;;
57111;SDS011;42992;49.084;19.300;2022-09-30T10:14:15;9.65;;;6.57;;
57111;SDS011;42992;49.084;19.300;2022-09-30T10:16:45;10.05;;;6.70;;
57111;SDS011;42992;49.084;19.300;2022-09-30T10:19:21;12.13;;;6.57;;
57111;SDS011;42992;49.084;19.300;2022-09-30T10:21:49;9.65;;;5.65;;
57111;SDS011;42992;49.084;19.300;2022-09-30T10:24:27;8.38;;;5.40;;
57111;SDS011;42992;49.084;19.300;2022-09-30T10:26:53;8.18;;;5.65;;
57111;SDS011;42992;49.084;19.300;2022-09-30T10:29:37;7.95;;;5.72;;
57111;SDS011;42992;49.084;19.300;2022-09-30T10:32:07;6.82;;;5.47;;
57111;SDS011;42992;49.084;19.300;2022-09-30T10:34:36;7.18;;;5.43;;
57111;SDS011;42992;49.084;19.300;2022-09-30T10:37:07;6.75;;;4.50;;
57111;SDS011;42992;49.084;19.300;2022-09-30T10:39:37;7.97;;;5.45;;
57111;SDS011;42992;49.084;19.300;2022-09-30T10:42:04;7.22;;;5.32;;
57111;SDS011;42992;49.084;19.300;2022-09-30T10:44:31;7.28;;;5.05;;
57111;SDS011;42992;49.084;19.300;2022-09-30T10:46:58;7.15;;;5.30;;
57111;SDS011;42992;49.084;19.300;2022-09-30T10:51:56;6.88;;;4.53;;
57111;SDS011;42992;49.084;19.300;2022-09-30T10:57:13;7.85;;;5.15;;
57111;SDS011;42992;49.084;19.300;2022-09-30T10:59:39;6.55;;;3.88;;
57111;SDS011;42992;49.084;19.300;2022-09-30T11:04:50;7.13;;;4.88;;
57111;SDS011;42992;49.084;19.300;2022-09-30T11:07:22;7.40;;;5.03;;
57111;SDS011;42992;49.084;19.300;2022-09-30T11:09:54;7.18;;;5.38;;
57111;SDS011;42992;49.084;19.300;2022-09-30T11:15:12;8.70;;;6.15;;
57111;SDS011;42992;49.084;19.300;2022-09-30T11:20:47;8.75;;;4.82;;
57111;SDS011;42992;49.084;19.300;2022-09-30T11:30:46;7.00;;;4.47;;
57111;SDS011;42992;49.084;19.300;2022-09-30T11:43:54;4.60;;;3.47;;
57111;SDS011;42992;49.084;19.300;2022-09-30T11:59:16;6.05;;;4.40;;
57111;SDS011;42992;49.084;19.300;2022-09-30T12:01:45;6.60;;;4.00;;
57111;SDS011;42992;49.084;19.300;2022-09-30T12:06:37;6.78;;;4.50;;
57111;SDS011;42992;49.084;19.300;2022-09-30T12:09:39;5.82;;;4.32;;
57111;SDS011;42992;49.084;19.300;2022-09-30T12:11:58;7.60;;;4.50;;
57111;SDS011;42992;49.084;19.300;2022-09-30T12:14:43;5.53;;;3.90;;
57111;SDS011;42992;49.084;19.300;2022-09-30T12:19:44;6.55;;;4.18;;
57111;SDS011;42992;49.084;19.300;2022-09-30T12:22:13;5.90;;;4.20;;
57111;SDS011;42992;49.084;19.300;2022-09-30T12:24:41;8.32;;;4.57;;
57111;SDS011;42992;49.084;19.300;2022-09-30T12:27:12;6.18;;;4.00;;
57111;SDS011;42992;49.084;19.300;2022-09-30T12:29:39;6.88;;;4.20;;
57111;SDS011;42992;49.084;19.300;2022-09-30T12:32:29;6.25;;;4.60;;
57111;SDS011;42992;49.084;19.300;2022-09-30T12:40:16;4.95;;;3.72;;
57111;SDS011;42992;49.084;19.300;2022-09-30T12:47:39;3.67;;;2.25;;
57111;SDS011;42992;49.084;19.300;2022-09-30T12:50:10;3.95;;;2.35;;
57111;SDS011;42992;49.084;19.300;2022-09-30T12:52:37;3.70;;;2.28;;
57111;SDS011;42992;49.084;19.300;2022-09-30T12:57:56;4.15;;;2.63;;
57111;SDS011;42992;49.084;19.300;2022-09-30T13:00:23;3.53;;;2.10;;
57111;SDS011;42992;49.084;19.300;2022-09-30T13:02:53;3.95;;;2.28;;
57111;SDS011;42992;49.084;19.300;2022-09-30T13:05:40;4.90;;;1.80;;
57111;SDS011;42992;49.084;19.300;2022-09-30T13:10:45;5.53;;;1.85;;
57111;SDS011;42992;49.084;19.300;2022-09-30T13:13:15;3.50;;;2.30;;
57111;SDS011;42992;49.084;19.300;2022-09-30T13:15:43;5.18;;;2.40;;
57111;SDS011;42992;49.084;19.300;2022-09-30T13:29:26;4.68;;;2.63;;
57111;SDS011;42992;49.084;19.300;2022-09-30T13:34:21;4.40;;;2.40;;
57111;SDS011;42992;49.084;19.300;2022-09-30T13:41:43;5.20;;;3.80;;
57111;SDS011;42992;49.084;19.300;2022-09-30T13:44:15;5.35;;;3.17;;
57111;SDS011;42992;49.084;19.300;2022-09-30T13:46:48;4.70;;;3.00;;
57111;SDS011;42992;49.084;19.300;2022-09-30T13:49:15;5.93;;;3.58;;
57111;SDS011;42992;49.084;19.300;2022-09-30T13:51:42;5.07;;;3.40;;
57111;SDS011;42992;49.084;19.300;2022-09-30T13:54:30;3.25;;;2.00;;
57111;SDS011;42992;49.084;19.300;2022-09-30T13:56:56;5.20;;;3.00;;
57111;SDS011;42992;49.084;19.300;2022-09-30T14:09:27;3.78;;;2.00;;
57111;SDS011;42992;49.084;19.300;2022-09-30T14:17:14;3.97;;;2.15;;
57111;SDS011;42992;49.084;19.300;2022-09-30T14:22:15;5.68;;;2.60;;
57111;SDS011;42992;49.084;19.300;2022-09-30T14:24:41;5.60;;;3.58;;
57111;SDS011;42992;49.084;19.300;2022-09-30T14:29:44;5.65;;;3.47;;
57111;SDS011;42992;49.084;19.300;2022-09-30T14:32:13;5.15;;;3.15;;
57111;SDS011;42992;49.084;19.300;2022-09-30T14:37:49;5.18;;;3.28;;
57111;SDS011;42992;49.084;19.300;2022-09-30T14:40:23;5.82;;;3.53;;
57111;SDS011;42992;49.084;19.300;2022-09-30T14:42:49;5.68;;;3.40;;
57111;SDS011;42992;49.084;19.300;2022-09-30T14:45:25;6.80;;;3.00;;
57111;SDS011;42992;49.084;19.300;2022-09-30T14:47:52;5.55;;;3.08;;
57111;SDS011;42992;49.084;19.300;2022-09-30T14:50:20;6.35;;;3.00;;
57111;SDS011;42992;49.084;19.300;2022-09-30T14:52:47;4.50;;;2.88;;
57111;SDS011;42992;49.084;19.300;2022-09-30T14:55:20;9.50;;;3.22;;
57111;SDS011;42992;49.084;19.300;2022-09-30T14:57:50;4.72;;;2.70;;
57111;SDS011;42992;49.084;19.300;2022-09-30T15:00:30;5.25;;;3.28;;
57111;SDS011;42992;49.084;19.300;2022-09-30T15:02:56;5.07;;;3.30;;
57111;SDS011;42992;49.084;19.300;2022-09-30T15:05:22;5.35;;;2.78;;
57111;SDS011;42992;49.084;19.300;2022-09-30T15:07:48;5.88;;;3.70;;
57111;SDS011;42992;49.084;19.300;2022-09-30T15:10:17;5.78;;;4.07;;
57111;SDS011;42992;49.084;19.300;2022-09-30T15:12:43;5.38;;;3.65;;
57111;SDS011;42992;49.084;19.300;2022-09-30T15:21:09;16.13;;;10.45;;
57111;SDS011;42992;49.084;19.300;2022-09-30T15:23:36;11.07;;;5.88;;
57111;SDS011;42992;49.084;19.300;2022-09-30T15:26:03;15.13;;;8.43;;
57111;SDS011;42992;49.084;19.300;2022-09-30T15:28:30;11.35;;;7.28;;
57111;SDS011;42992;49.084;19.300;2022-09-30T15:30:57;11.02;;;6.82;;
57111;SDS011;42992;49.084;19.300;2022-09-30T15:33:23;11.52;;;6.82;;
57111;SDS011;42992;49.084;19.300;2022-09-30T15:35:51;12.15;;;7.38;;
57111;SDS011;42992;49.084;19.300;2022-09-30T15:38:24;11.27;;;7.63;;
57111;SDS011;42992;49.084;19.300;2022-09-30T15:40:57;9.30;;;5.60;;
57111;SDS011;42992;49.084;19.300;2022-09-30T15:43:33;9.70;;;5.78;;
57111;SDS011;42992;49.084;19.300;2022-09-30T15:48:41;12.55;;;7.00;;
57111;SDS011;42992;49.084;19.300;2022-09-30T15:51:21;11.40;;;7.30;;
57111;SDS011;42992;49.084;19.300;2022-09-30T15:53:47;10.55;;;6.60;;
57111;SDS011;42992;49.084;19.300;2022-09-30T16:01:34;9.60;;;6.72;;
57111;SDS011;42992;49.084;19.300;2022-09-30T16:04:05;10.82;;;7.28;;
57111;SDS011;42992;49.084;19.300;2022-09-30T16:06:42;11.02;;;5.50;;
57111;SDS011;42992;49.084;19.300;2022-09-30T16:11:43;11.87;;;7.23;;
57111;SDS011;42992;49.084;19.300;2022-09-30T16:14:16;11.52;;;7.68;;
57111;SDS011;42992;49.084;19.300;2022-09-30T16:16:46;12.60;;;9.18;;
57111;SDS011;42992;49.084;19.300;2022-09-30T16:19:14;11.00;;;8.68;;
57111;SDS011;42992;49.084;19.300;2022-09-30T16:21:42;9.90;;;7.47;;
57111;SDS011;42992;49.084;19.300;2022-09-30T16:26:50;9.95;;;7.75;;
57111;SDS011;42992;49.084;19.300;2022-09-30T16:29:15;11.18;;;7.53;;
57111;SDS011;42992;49.084;19.300;2022-09-30T16:31:41;11.00;;;7.90;;
57111;SDS011;42992;49.084;19.300;2022-09-30T16:34:17;12.63;;;8.98;;
57111;SDS011;42992;49.084;19.300;2022-09-30T16:36:43;12.68;;;9.15;;
57111;SDS011;42992;49.084;19.300;2022-09-30T16:39:09;14.88;;;9.18;;
57111;SDS011;42992;49.084;19.300;2022-09-30T16:41:36;17.10;;;13.18;;
57111;SDS011;42992;49.084;19.300;2022-09-30T16:44:02;15.15;;;11.23;;
57111;SDS011;42992;49.084;19.300;2022-09-30T16:46:27;16.25;;;12.70;;
57111;SDS011;42992;49.084;19.300;2022-09-30T16:48:52;18.00;;;12.80;;
57111;SDS011;42992;49.084;19.300;2022-09-30T16:51:18;17.40;;;12.13;;
57111;SDS011;42992;49.084;19.300;2022-09-30T16:53:43;19.67;;;11.55;;
57111;SDS011;42992;49.084;19.300;2022-09-30T16:56:15;10.18;;;7.55;;
57111;SDS011;42992;49.084;19.300;2022-09-30T16:58:41;11.88;;;7.88;;
57111;SDS011;42992;49.084;19.300;2022-09-30T17:01:28;13.77;;;9.45;;
57111;SDS011;42992;49.084;19.300;2022-09-30T17:03:52;11.32;;;8.27;;
57111;SDS011;42992;49.084;19.300;2022-09-30T17:06:20;12.32;;;9.30;;
57111;SDS011;42992;49.084;19.300;2022-09-30T17:08:49;18.55;;;9.55;;
57111;SDS011;42992;49.084;19.300;2022-09-30T17:11:15;18.17;;;10.75;;
57111;SDS011;42992;49.084;19.300;2022-09-30T17:13:40;24.15;;;17.73;;
57111;SDS011;42992;49.084;19.300;2022-09-30T17:16:06;29.05;;;18.02;;
57111;SDS011;42992;49.084;19.300;2022-09-30T17:18:32;25.25;;;19.63;;
57111;SDS011;42992;49.084;19.300;2022-09-30T17:20:57;26.77;;;19.45;;
57111;SDS011;42992;49.084;19.300;2022-09-30T17:23:24;27.13;;;18.38;;
57111;SDS011;42992;49.084;19.300;2022-09-30T17:25:50;24.35;;;18.13;;
57111;SDS011;42992;49.084;19.300;2022-09-30T17:28:16;23.33;;;17.60;;
57111;SDS011;42992;49.084;19.300;2022-09-30T17:30:42;18.80;;;14.18;;
57111;SDS011;42992;49.084;19.300;2022-09-30T17:33:09;15.38;;;11.40;;
57111;SDS011;42992;49.084;19.300;2022-09-30T17:35:35;11.40;;;8.00;;
57111;SDS011;42992;49.084;19.300;2022-09-30T17:38:00;13.52;;;9.50;;
57111;SDS011;42992;49.084;19.300;2022-09-30T17:40:29;15.20;;;9.18;;
57111;SDS011;42992;49.084;19.300;2022-09-30T17:43:13;12.77;;;8.98;;
57111;SDS011;42992;49.084;19.300;2022-09-30T17:45:40;15.50;;;10.38;;
57111;SDS011;42992;49.084;19.300;2022-09-30T17:48:05;17.48;;;12.48;;
57111;SDS011;42992;49.084;19.300;2022-09-30T17:50:33;17.67;;;12.10;;
57111;SDS011;42992;49.084;19.300;2022-09-30T17:52:59;19.23;;;12.95;;